sensor_id;sensor_type;location;lat;lon;timestamp;P1;durP1;ratioP1;P2;durP2;ratioP2
48285;SDS011;34102;47.716;10.296;2023-12-28T03:45:15;1.25;;;0.63;;
48285;SDS011;34102;47.716;10.296;2023-12-28T03:50:13;0.85;;;0.40;;
48285;SDS011;34102;47.716;10.296;2023-12-28T03:52:39;0.90;;;0.40;;
48285;SDS011;34102;47.716;10.296;2023-12-28T03:55:05;1.38;;;0.40;;
48285;SDS011;34102;47.716;10.296;2023-12-28T03:57:30;1.00;;;0.30;;
48285;SDS011;34102;47.716;10.296;2023-12-28T03:59:55;1.08;;;0.40;;
48285;SDS011;34102;47.716;10.296;2023-12-28T04:02:21;1.88;;;0.52;;
48285;SDS011;34102;47.716;10.296;2023-12-28T04:04:49;0.95;;;0.30;;
48285;SDS011;34102;47.716;10.296;2023-12-28T04:07:15;0.70;;;0.30;;
48285;SDS011;34102;47.716;10.296;2023-12-28T04:09:41;0.40;;;0.10;;
48285;SDS011;34102;47.716;10.296;2023-12-28T04:12:06;0.57;;;0.20;;
48285;SDS011;34102;47.716;10.296;2023-12-28T04:14:32;1.15;;;0.38;;
48285;SDS011;34102;47.716;10.296;2023-12-28T04:16:58;0.82;;;0.22;;
48285;SDS011;34102;47.716;10.296;2023-12-28T04:19:24;1.20;;;0.40;;
48285;SDS011;34102;47.716;10.296;2023-12-28T04:21:50;1.83;;;0.95;;
48285;SDS011;34102;47.716;10.296;2023-12-28T04:24:16;0.50;;;0.20;;
48285;SDS011;34102;47.716;10.296;2023-12-28T04:26:42;0.98;;;0.30;;
48285;SDS011;34102;47.716;10.296;2023-12-28T04:29:07;0.73;;;0.20;;
48285;SDS011;34102;47.716;10.296;2023-12-28T04:31:39;2.08;;;0.30;;
48285;SDS011;34102;47.716;10.296;2023-12-28T04:34:06;1.50;;;0.28;;
48285;SDS011;34102;47.716;10.296;2023-12-28T04:36:39;0.70;;;0.28;;
48285;SDS011;34102;47.716;10.296;2023-12-28T04:39:04;0.85;;;0.25;;
48285;SDS011;34102;47.716;10.296;2023-12-28T04:41:29;3.13;;;0.30;;
48285;SDS011;34102;47.716;10.296;2023-12-28T04:43:55;0.80;;;0.30;;
48285;SDS011;34102;47.716;10.296;2023-12-28T04:46:21;2.20;;;0.52;;
48285;SDS011;34102;47.716;10.296;2023-12-28T04:48:47;1.23;;;0.45;;
48285;SDS011;34102;47.716;10.296;2023-12-28T04:51:12;0.95;;;0.30;;
48285;SDS011;34102;47.716;10.296;2023-12-28T04:53:39;1.20;;;0.40;;
48285;SDS011;34102;47.716;10.296;2023-12-28T04:56:04;1.15;;;0.30;;
48285;SDS011;34102;47.716;10.296;2023-12-28T04:58:29;1.10;;;0.25;;
48285;SDS011;34102;47.716;10.296;2023-12-28T05:00:56;1.27;;;0.40;;
48285;SDS011;34102;47.716;10.296;2023-12-28T05:03:26;0.82;;;0.30;;
48285;SDS011;34102;47.716;10.296;2023-12-28T05:05:52;0.68;;;0.20;;
48285;SDS011;34102;47.716;10.296;2023-12-28T05:08:18;2.30;;;0.22;;
48285;SDS011;34102;47.716;10.296;2023-12-28T05:10:43;0.63;;;0.20;;
48285;SDS011;34102;47.716;10.296;2023-12-28T05:13:09;1.27;;;0.32;;
48285;SDS011;34102;47.716;10.296;2023-12-28T05:15:34;0.90;;;0.30;;
48285;SDS011;34102;47.716;10.296;2023-12-28T05:17:59;1.00;;;0.57;;
48285;SDS011;34102;47.716;10.296;2023-12-28T05:20:25;0.70;;;0.30;;
48285;SDS011;34102;47.716;10.296;2023-12-28T05:22:50;1.08;;;0.20;;
48285;SDS011;34102;47.716;10.296;2023-12-28T05:25:17;1.02;;;0.30;;
48285;SDS011;34102;47.716;10.296;2023-12-28T05:27:42;0.50;;;0.20;;
48285;SDS011;34102;47.716;10.296;2023-12-28T05:30:08;0.55;;;0.20;;
48285;SDS011;34102;47.716;10.296;2023-12-28T05:32:34;1.25;;;0.40;;
48285;SDS011;34102;47.716;10.296;2023-12-28T05:35:01;1.95;;;0.38;;
48285;SDS011;34102;47.716;10.296;2023-12-28T05:37:31;0.98;;;0.30;;
48285;SDS011;34102;47.716;10.296;2023-12-28T05:39:56;1.30;;;0.30;;
48285;SDS011;34102;47.716;10.296;2023-12-28T05:42:22;0.80;;;0.25;;
48285;SDS011;34102;47.716;10.296;2023-12-28T05:44:49;1.50;;;0.35;;
48285;SDS011;34102;47.716;10.296;2023-12-28T05:47:16;1.25;;;0.40;;
48285;SDS011;34102;47.716;10.296;2023-12-28T05:49:45;0.95;;;0.30;;
48285;SDS011;34102;47.716;10.296;2023-12-28T05:52:10;1.83;;;0.60;;
48285;SDS011;34102;47.716;10.296;2023-12-28T05:54:35;1.00;;;0.40;;
48285;SDS011;34102;47.716;10.296;2023-12-28T05:57:02;1.35;;;0.40;;
48285;SDS011;34102;47.716;10.296;2023-12-28T05:59:28;0.73;;;0.32;;
48285;SDS011;34102;47.716;10.296;2023-12-28T06:01:53;2.78;;;1.15;;
48285;SDS011;34102;47.716;10.296;2023-12-28T06:04:18;0.95;;;0.32;;
48285;SDS011;34102;47.716;10.296;2023-12-28T06:06:44;2.20;;;0.55;;
48285;SDS011;34102;47.716;10.296;2023-12-28T06:09:09;1.60;;;0.60;;
48285;SDS011;34102;47.716;10.296;2023-12-28T06:11:34;1.73;;;0.50;;
48285;SDS011;34102;47.716;10.296;2023-12-28T06:14:00;1.20;;;0.47;;
48285;SDS011;34102;47.716;10.296;2023-12-28T06:16:26;1.48;;;0.50;;
48285;SDS011;34102;47.716;10.296;2023-12-28T06:18:53;1.30;;;0.50;;
48285;SDS011;34102;47.716;10.296;2023-12-28T06:21:19;1.10;;;0.30;;
48285;SDS011;34102;47.716;10.296;2023-12-28T06:23:44;1.80;;;0.68;;
48285;SDS011;34102;47.716;10.296;2023-12-28T06:26:09;1.60;;;0.40;;
48285;SDS011;34102;47.716;10.296;2023-12-28T06:28:35;2.65;;;0.63;;
48285;SDS011;34102;47.716;10.296;2023-12-28T06:31:00;1.15;;;0.50;;
48285;SDS011;34102;47.716;10.296;2023-12-28T06:33:29;1.83;;;0.70;;
48285;SDS011;34102;47.716;10.296;2023-12-28T06:35:54;1.77;;;0.45;;
48285;SDS011;34102;47.716;10.296;2023-12-28T06:38:20;0.98;;;0.40;;
48285;SDS011;34102;47.716;10.296;2023-12-28T06:40:45;0.95;;;0.35;;
48285;SDS011;34102;47.716;10.296;2023-12-28T06:43:11;1.25;;;0.40;;
48285;SDS011;34102;47.716;10.296;2023-12-28T06:45:39;1.50;;;0.47;;
48285;SDS011;34102;47.716;10.296;2023-12-28T06:48:04;2.38;;;0.80;;
48285;SDS011;34102;47.716;10.296;2023-12-28T06:50:31;0.73;;;0.30;;
48285;SDS011;34102;47.716;10.296;2023-12-28T06:52:58;1.42;;;0.50;;
48285;SDS011;34102;47.716;10.296;2023-12-28T06:55:23;0.90;;;0.50;;
48285;SDS011;34102;47.716;10.296;2023-12-28T06:57:51;1.77;;;0.52;;
48285;SDS011;34102;47.716;10.296;2023-12-28T07:00:16;1.67;;;0.65;;
48285;SDS011;34102;47.716;10.296;2023-12-28T07:02:42;1.73;;;0.70;;
48285;SDS011;34102;47.716;10.296;2023-12-28T07:05:07;1.35;;;0.65;;
48285;SDS011;34102;47.716;10.296;2023-12-28T07:07:33;1.42;;;0.60;;
48285;SDS011;34102;47.716;10.296;2023-12-28T07:09:58;1.45;;;0.75;;
48285;SDS011;34102;47.716;10.296;2023-12-28T07:12:25;2.95;;;0.63;;
48285;SDS011;34102;47.716;10.296;2023-12-28T07:14:50;2.08;;;0.98;;
48285;SDS011;34102;47.716;10.296;2023-12-28T07:17:16;0.77;;;0.25;;
48285;SDS011;34102;47.716;10.296;2023-12-28T07:19:42;0.98;;;0.40;;
48285;SDS011;34102;47.716;10.296;2023-12-28T07:22:08;3.70;;;1.20;;
48285;SDS011;34102;47.716;10.296;2023-12-28T07:24:33;1.67;;;1.23;;
48285;SDS011;34102;47.716;10.296;2023-12-28T07:26:58;1.10;;;0.70;;
48285;SDS011;34102;47.716;10.296;2023-12-28T07:29:24;1.67;;;0.40;;
48285;SDS011;34102;47.716;10.296;2023-12-28T07:31:49;2.30;;;1.00;;
48285;SDS011;34102;47.716;10.296;2023-12-28T07:34:15;3.13;;;0.57;;
48285;SDS011;34102;47.716;10.296;2023-12-28T07:36:41;1.77;;;0.57;;
48285;SDS011;34102;47.716;10.296;2023-12-28T07:39:08;2.17;;;0.63;;
48285;SDS011;34102;47.716;10.296;2023-12-28T07:41:34;1.35;;;0.40;;
48285;SDS011;34102;47.716;10.296;2023-12-28T07:44:01;1.92;;;0.82;;
48285;SDS011;34102;47.716;10.296;2023-12-28T07:46:27;1.63;;;0.70;;
48285;SDS011;34102;47.716;10.296;2023-12-28T07:48:54;2.10;;;0.90;;
48285;SDS011;34102;47.716;10.296;2023-12-28T07:51:19;2.17;;;1.38;;
48285;SDS011;34102;47.716;10.296;2023-12-28T07:53:45;3.67;;;1.80;;
48285;SDS011;34102;47.716;10.296;2023-12-28T07:56:10;2.67;;;1.58;;
48285;SDS011;34102;47.716;10.296;2023-12-28T07:58:36;2.63;;;1.10;;
48285;SDS011;34102;47.716;10.296;2023-12-28T08:01:08;4.00;;;1.15;;
48285;SDS011;34102;47.716;10.296;2023-12-28T08:03:34;2.13;;;0.73;;
48285;SDS011;34102;47.716;10.296;2023-12-28T08:05:59;1.70;;;0.93;;
48285;SDS011;34102;47.716;10.296;2023-12-28T08:08:27;2.97;;;0.98;;
48285;SDS011;34102;47.716;10.296;2023-12-28T08:10:52;7.25;;;0.90;;
48285;SDS011;34102;47.716;10.296;2023-12-28T08:13:18;3.10;;;1.23;;
48285;SDS011;34102;47.716;10.296;2023-12-28T08:15:44;3.85;;;0.77;;
48285;SDS011;34102;47.716;10.296;2023-12-28T08:18:12;2.05;;;0.75;;
48285;SDS011;34102;47.716;10.296;2023-12-28T08:20:38;1.80;;;0.73;;
48285;SDS011;34102;47.716;10.296;2023-12-28T08:23:03;3.20;;;0.80;;
48285;SDS011;34102;47.716;10.296;2023-12-28T08:25:28;2.88;;;0.93;;
48285;SDS011;34102;47.716;10.296;2023-12-28T08:27:54;3.63;;;0.95;;
48285;SDS011;34102;47.716;10.296;2023-12-28T08:30:20;4.53;;;1.80;;
48285;SDS011;34102;47.716;10.296;2023-12-28T08:32:45;4.45;;;1.48;;
48285;SDS011;34102;47.716;10.296;2023-12-28T08:35:12;2.70;;;1.50;;
48285;SDS011;34102;47.716;10.296;2023-12-28T08:37:37;4.25;;;1.50;;
48285;SDS011;34102;47.716;10.296;2023-12-28T08:40:02;3.05;;;1.77;;
48285;SDS011;34102;47.716;10.296;2023-12-28T08:42:29;3.47;;;1.42;;
48285;SDS011;34102;47.716;10.296;2023-12-28T08:44:54;3.55;;;1.67;;
48285;SDS011;34102;47.716;10.296;2023-12-28T08:47:21;4.78;;;1.30;;
48285;SDS011;34102;47.716;10.296;2023-12-28T08:49:47;3.22;;;1.42;;
48285;SDS011;34102;47.716;10.296;2023-12-28T08:52:13;4.85;;;1.08;;
48285;SDS011;34102;47.716;10.296;2023-12-28T08:54:39;3.55;;;1.33;;
48285;SDS011;34102;47.716;10.296;2023-12-28T08:57:06;2.88;;;1.38;;
48285;SDS011;34102;47.716;10.296;2023-12-28T08:59:36;3.35;;;1.50;;
48285;SDS011;34102;47.716;10.296;2023-12-28T09:02:03;5.63;;;1.55;;
48285;SDS011;34102;47.716;10.296;2023-12-28T09:04:28;3.50;;;1.60;;
48285;SDS011;34102;47.716;10.296;2023-12-28T09:06:55;2.97;;;1.17;;
48285;SDS011;34102;47.716;10.296;2023-12-28T09:09:25;3.20;;;0.70;;
48285;SDS011;34102;47.716;10.296;2023-12-28T09:11:51;1.08;;;0.55;;
48285;SDS011;34102;47.716;10.296;2023-12-28T09:14:16;2.03;;;0.80;;
48285;SDS011;34102;47.716;10.296;2023-12-28T09:16:47;2.88;;;0.73;;
48285;SDS011;34102;47.716;10.296;2023-12-28T09:19:15;2.95;;;1.00;;
48285;SDS011;34102;47.716;10.296;2023-12-28T09:21:41;4.38;;;0.70;;
48285;SDS011;34102;47.716;10.296;2023-12-28T09:24:06;2.90;;;0.65;;
48285;SDS011;34102;47.716;10.296;2023-12-28T09:26:33;2.10;;;0.38;;
48285;SDS011;34102;47.716;10.296;2023-12-28T09:28:58;0.90;;;0.40;;
48285;SDS011;34102;47.716;10.296;2023-12-28T09:31:25;0.70;;;0.45;;
48285;SDS011;34102;47.716;10.296;2023-12-28T09:33:50;2.08;;;0.45;;
48285;SDS011;34102;47.716;10.296;2023-12-28T09:36:17;1.40;;;0.52;;
48285;SDS011;34102;47.716;10.296;2023-12-28T09:38:42;1.50;;;0.55;;
48285;SDS011;34102;47.716;10.296;2023-12-28T09:41:10;3.03;;;0.98;;
48285;SDS011;34102;47.716;10.296;2023-12-28T09:43:37;1.55;;;0.70;;
48285;SDS011;34102;47.716;10.296;2023-12-28T09:46:07;1.63;;;0.70;;
48285;SDS011;34102;47.716;10.296;2023-12-28T09:48:33;1.08;;;0.57;;
48285;SDS011;34102;47.716;10.296;2023-12-28T09:51:00;1.17;;;0.40;;
48285;SDS011;34102;47.716;10.296;2023-12-28T09:53:27;0.90;;;0.43;;
48285;SDS011;34102;47.716;10.296;2023-12-28T09:55:52;1.58;;;0.70;;
48285;SDS011;34102;47.716;10.296;2023-12-28T09:58:18;1.70;;;0.50;;
48285;SDS011;34102;47.716;10.296;2023-12-28T10:00:49;1.17;;;0.40;;
48285;SDS011;34102;47.716;10.296;2023-12-28T10:03:15;1.48;;;0.70;;
48285;SDS011;34102;47.716;10.296;2023-12-28T10:05:43;2.13;;;0.57;;
48285;SDS011;34102;47.716;10.296;2023-12-28T10:08:12;1.58;;;0.80;;
48285;SDS011;34102;47.716;10.296;2023-12-28T10:10:39;3.20;;;1.00;;
48285;SDS011;34102;47.716;10.296;2023-12-28T10:13:06;2.13;;;0.90;;
48285;SDS011;34102;47.716;10.296;2023-12-28T10:15:31;1.73;;;0.65;;
48285;SDS011;34102;47.716;10.296;2023-12-28T10:17:56;2.42;;;0.93;;
48285;SDS011;34102;47.716;10.296;2023-12-28T10:20:22;2.05;;;0.70;;
48285;SDS011;34102;47.716;10.296;2023-12-28T10:22:47;4.20;;;1.20;;
48285;SDS011;34102;47.716;10.296;2023-12-28T10:25:13;2.75;;;0.93;;
48285;SDS011;34102;47.716;10.296;2023-12-28T10:27:39;7.88;;;1.73;;
48285;SDS011;34102;47.716;10.296;2023-12-28T10:30:06;3.35;;;0.88;;
48285;SDS011;34102;47.716;10.296;2023-12-28T10:32:33;3.33;;;0.68;;
48285;SDS011;34102;47.716;10.296;2023-12-28T10:34:59;2.95;;;0.93;;
48285;SDS011;34102;47.716;10.296;2023-12-28T10:37:26;3.10;;;1.15;;
48285;SDS011;34102;47.716;10.296;2023-12-28T10:39:53;2.50;;;0.90;;
48285;SDS011;34102;47.716;10.296;2023-12-28T10:42:29;1.27;;;0.60;;
48285;SDS011;34102;47.716;10.296;2023-12-28T10:45:01;0.93;;;0.40;;
48285;SDS011;34102;47.716;10.296;2023-12-28T10:47:27;3.92;;;0.80;;
48285;SDS011;34102;47.716;10.296;2023-12-28T10:49:53;1.50;;;0.93;;
48285;SDS011;34102;47.716;10.296;2023-12-28T10:52:23;2.83;;;1.08;;
48285;SDS011;34102;47.716;10.296;2023-12-28T10:55:12;1.80;;;0.60;;
48285;SDS011;34102;47.716;10.296;2023-12-28T11:00:20;2.85;;;1.27;;
48285;SDS011;34102;47.716;10.296;2023-12-28T11:02:51;1.40;;;0.80;;
48285;SDS011;34102;47.716;10.296;2023-12-28T11:05:21;2.38;;;1.00;;
48285;SDS011;34102;47.716;10.296;2023-12-28T11:07:47;5.40;;;1.27;;
48285;SDS011;34102;47.716;10.296;2023-12-28T11:10:14;7.70;;;2.22;;
48285;SDS011;34102;47.716;10.296;2023-12-28T11:12:43;1.85;;;1.10;;
48285;SDS011;34102;47.716;10.296;2023-12-28T11:15:08;1.55;;;0.50;;
48285;SDS011;34102;47.716;10.296;2023-12-28T11:17:35;4.95;;;0.88;;
48285;SDS011;34102;47.716;10.296;2023-12-28T11:20:02;7.75;;;1.70;;
48285;SDS011;34102;47.716;10.296;2023-12-28T11:22:31;2.70;;;0.60;;
48285;SDS011;34102;47.716;10.296;2023-12-28T11:24:58;4.05;;;0.85;;
48285;SDS011;34102;47.716;10.296;2023-12-28T11:27:25;2.95;;;1.08;;
48285;SDS011;34102;47.716;10.296;2023-12-28T11:30:05;0.77;;;0.32;;
48285;SDS011;34102;47.716;10.296;2023-12-28T11:32:35;0.68;;;0.30;;
48285;SDS011;34102;47.716;10.296;2023-12-28T11:35:03;0.70;;;0.30;;
48285;SDS011;34102;47.716;10.296;2023-12-28T11:37:32;0.80;;;0.32;;
48285;SDS011;34102;47.716;10.296;2023-12-28T11:39:59;0.73;;;0.20;;
48285;SDS011;34102;47.716;10.296;2023-12-28T11:42:36;0.55;;;0.30;;
48285;SDS011;34102;47.716;10.296;2023-12-28T11:45:01;4.15;;;2.47;;
48285;SDS011;34102;47.716;10.296;2023-12-28T11:47:27;1.70;;;0.75;;
48285;SDS011;34102;47.716;10.296;2023-12-28T11:49:53;1.02;;;0.73;;
48285;SDS011;34102;47.716;10.296;2023-12-28T11:54:48;1.55;;;0.40;;
48285;SDS011;34102;47.716;10.296;2023-12-28T11:57:15;1.48;;;0.40;;
48285;SDS011;34102;47.716;10.296;2023-12-28T11:59:42;0.60;;;0.22;;
48285;SDS011;34102;47.716;10.296;2023-12-28T12:02:07;1.13;;;0.40;;
48285;SDS011;34102;47.716;10.296;2023-12-28T12:04:34;1.38;;;0.30;;
48285;SDS011;34102;47.716;10.296;2023-12-28T12:07:03;0.63;;;0.25;;
48285;SDS011;34102;47.716;10.296;2023-12-28T12:09:31;0.75;;;0.32;;
48285;SDS011;34102;47.716;10.296;2023-12-28T12:12:01;0.50;;;0.30;;
48285;SDS011;34102;47.716;10.296;2023-12-28T12:14:27;3.00;;;0.60;;
48285;SDS011;34102;47.716;10.296;2023-12-28T12:16:55;0.98;;;0.30;;
48285;SDS011;34102;47.716;10.296;2023-12-28T12:19:24;0.60;;;0.30;;
48285;SDS011;34102;47.716;10.296;2023-12-28T12:21:54;1.85;;;0.30;;
48285;SDS011;34102;47.716;10.296;2023-12-28T12:24:20;1.40;;;0.45;;
48285;SDS011;34102;47.716;10.296;2023-12-28T12:26:49;0.75;;;0.32;;
48285;SDS011;34102;47.716;10.296;2023-12-28T12:29:15;1.02;;;0.30;;
48285;SDS011;34102;47.716;10.296;2023-12-28T12:31:41;0.90;;;0.40;;
48285;SDS011;34102;47.716;10.296;2023-12-28T12:34:08;0.80;;;0.32;;
48285;SDS011;34102;47.716;10.296;2023-12-28T12:36:33;0.90;;;0.30;;
48285;SDS011;34102;47.716;10.296;2023-12-28T12:38:59;2.65;;;1.50;;
48285;SDS011;34102;47.716;10.296;2023-12-28T12:41:24;1.50;;;0.40;;
48285;SDS011;34102;47.716;10.296;2023-12-28T12:43:51;1.10;;;0.45;;
48285;SDS011;34102;47.716;10.296;2023-12-28T12:46:17;1.27;;;0.40;;
48285;SDS011;34102;47.716;10.296;2023-12-28T12:48:53;1.58;;;0.80;;
48285;SDS011;34102;47.716;10.296;2023-12-28T12:51:18;1.63;;;0.70;;
48285;SDS011;34102;47.716;10.296;2023-12-28T12:53:46;1.67;;;0.60;;
48285;SDS011;34102;47.716;10.296;2023-12-28T12:56:12;2.85;;;1.45;;
48285;SDS011;34102;47.716;10.296;2023-12-28T12:58:43;3.40;;;1.30;;
48285;SDS011;34102;47.716;10.296;2023-12-28T13:01:11;4.80;;;0.90;;
48285;SDS011;34102;47.716;10.296;2023-12-28T13:03:37;1.20;;;0.43;;
48285;SDS011;34102;47.716;10.296;2023-12-28T13:06:03;1.17;;;0.40;;
48285;SDS011;34102;47.716;10.296;2023-12-28T13:08:29;0.93;;;0.43;;
48285;SDS011;34102;47.716;10.296;2023-12-28T13:10:55;1.13;;;0.30;;
48285;SDS011;34102;47.716;10.296;2023-12-28T13:13:23;1.08;;;0.30;;
48285;SDS011;34102;47.716;10.296;2023-12-28T13:15:48;1.48;;;0.70;;
48285;SDS011;34102;47.716;10.296;2023-12-28T13:18:14;0.70;;;0.30;;
48285;SDS011;34102;47.716;10.296;2023-12-28T13:20:39;3.25;;;0.70;;
48285;SDS011;34102;47.716;10.296;2023-12-28T13:23:06;0.90;;;0.35;;
48285;SDS011;34102;47.716;10.296;2023-12-28T13:25:34;1.83;;;0.60;;
48285;SDS011;34102;47.716;10.296;2023-12-28T13:27:59;2.92;;;0.95;;
48285;SDS011;34102;47.716;10.296;2023-12-28T13:30:25;1.70;;;0.60;;
48285;SDS011;34102;47.716;10.296;2023-12-28T13:32:54;1.50;;;0.82;;
48285;SDS011;34102;47.716;10.296;2023-12-28T13:35:20;4.93;;;1.23;;
48285;SDS011;34102;47.716;10.296;2023-12-28T13:37:45;1.50;;;0.73;;
48285;SDS011;34102;47.716;10.296;2023-12-28T13:40:10;2.08;;;1.00;;
48285;SDS011;34102;47.716;10.296;2023-12-28T13:42:36;1.20;;;0.55;;
48285;SDS011;34102;47.716;10.296;2023-12-28T13:45:01;3.72;;;0.90;;
48285;SDS011;34102;47.716;10.296;2023-12-28T13:47:29;2.42;;;1.17;;
48285;SDS011;34102;47.716;10.296;2023-12-28T13:49:54;2.15;;;1.50;;
48285;SDS011;34102;47.716;10.296;2023-12-28T13:52:21;20.52;;;11.10;;
48285;SDS011;34102;47.716;10.296;2023-12-28T13:54:46;10.02;;;4.53;;
48285;SDS011;34102;47.716;10.296;2023-12-28T13:57:12;4.75;;;2.35;;
48285;SDS011;34102;47.716;10.296;2023-12-28T13:59:38;1.92;;;0.98;;
48285;SDS011;34102;47.716;10.296;2023-12-28T14:02:05;3.58;;;1.88;;
48285;SDS011;34102;47.716;10.296;2023-12-28T14:04:30;2.30;;;1.08;;
48285;SDS011;34102;47.716;10.296;2023-12-28T14:06:57;2.72;;;1.50;;
48285;SDS011;34102;47.716;10.296;2023-12-28T14:09:22;2.08;;;1.00;;
48285;SDS011;34102;47.716;10.296;2023-12-28T14:11:48;1.40;;;0.98;;
48285;SDS011;34102;47.716;10.296;2023-12-28T14:14:14;3.08;;;1.00;;
48285;SDS011;34102;47.716;10.296;2023-12-28T14:16:40;3.78;;;2.10;;
48285;SDS011;34102;47.716;10.296;2023-12-28T14:19:06;3.75;;;1.95;;
48285;SDS011;34102;47.716;10.296;2023-12-28T14:21:35;2.08;;;1.77;;
48285;SDS011;34102;47.716;10.296;2023-12-28T14:24:03;2.65;;;1.60;;
48285;SDS011;34102;47.716;10.296;2023-12-28T14:26:31;6.15;;;1.77;;
48285;SDS011;34102;47.716;10.296;2023-12-28T14:28:58;2.10;;;1.10;;
48285;SDS011;34102;47.716;10.296;2023-12-28T14:31:29;4.32;;;1.50;;
48285;SDS011;34102;47.716;10.296;2023-12-28T14:33:55;4.80;;;2.63;;
48285;SDS011;34102;47.716;10.296;2023-12-28T14:38:52;5.85;;;2.15;;
48285;SDS011;34102;47.716;10.296;2023-12-28T14:41:17;5.07;;;1.90;;
48285;SDS011;34102;47.716;10.296;2023-12-28T14:43:44;4.95;;;2.00;;
48285;SDS011;34102;47.716;10.296;2023-12-28T14:46:09;5.50;;;2.40;;
48285;SDS011;34102;47.716;10.296;2023-12-28T14:48:36;4.63;;;1.80;;
48285;SDS011;34102;47.716;10.296;2023-12-28T14:51:04;6.43;;;2.47;;
48285;SDS011;34102;47.716;10.296;2023-12-28T14:53:29;4.45;;;1.98;;
48285;SDS011;34102;47.716;10.296;2023-12-28T14:55:55;7.53;;;3.35;;
48285;SDS011;34102;47.716;10.296;2023-12-28T14:58:20;6.82;;;2.60;;
48285;SDS011;34102;47.716;10.296;2023-12-28T15:00:47;2.53;;;1.20;;
48285;SDS011;34102;47.716;10.296;2023-12-28T15:03:12;1.77;;;0.90;;
48285;SDS011;34102;47.716;10.296;2023-12-28T15:05:38;5.50;;;1.65;;
48285;SDS011;34102;47.716;10.296;2023-12-28T15:08:04;4.50;;;1.77;;
48285;SDS011;34102;47.716;10.296;2023-12-28T15:10:32;4.68;;;1.77;;
48285;SDS011;34102;47.716;10.296;2023-12-28T15:12:58;3.83;;;1.73;;
48285;SDS011;34102;47.716;10.296;2023-12-28T15:15:25;3.40;;;1.55;;
48285;SDS011;34102;47.716;10.296;2023-12-28T15:17:52;2.85;;;1.25;;
48285;SDS011;34102;47.716;10.296;2023-12-28T15:20:18;2.92;;;1.17;;
48285;SDS011;34102;47.716;10.296;2023-12-28T15:22:44;2.50;;;1.15;;
48285;SDS011;34102;47.716;10.296;2023-12-28T15:25:10;2.80;;;1.45;;
48285;SDS011;34102;47.716;10.296;2023-12-28T15:27:36;1.35;;;0.85;;
48285;SDS011;34102;47.716;10.296;2023-12-28T15:30:02;2.50;;;1.10;;
48285;SDS011;34102;47.716;10.296;2023-12-28T15:32:30;1.63;;;0.88;;
48285;SDS011;34102;47.716;10.296;2023-12-28T15:34:55;4.47;;;0.98;;
48285;SDS011;34102;47.716;10.296;2023-12-28T15:37:21;2.80;;;1.30;;
48285;SDS011;34102;47.716;10.296;2023-12-28T15:39:46;2.80;;;1.42;;
48285;SDS011;34102;47.716;10.296;2023-12-28T15:42:12;2.58;;;1.63;;
48285;SDS011;34102;47.716;10.296;2023-12-28T15:44:38;2.42;;;1.08;;
48285;SDS011;34102;47.716;10.296;2023-12-28T15:47:05;1.70;;;0.95;;
48285;SDS011;34102;47.716;10.296;2023-12-28T15:49:32;3.95;;;0.88;;
48285;SDS011;34102;47.716;10.296;2023-12-28T15:51:58;9.07;;;4.68;;
48285;SDS011;34102;47.716;10.296;2023-12-28T15:54:26;2.90;;;1.58;;
48285;SDS011;34102;47.716;10.296;2023-12-28T15:56:51;4.05;;;2.13;;
48285;SDS011;34102;47.716;10.296;2023-12-28T15:59:16;3.45;;;1.65;;
48285;SDS011;34102;47.716;10.296;2023-12-28T16:01:42;2.75;;;1.88;;
48285;SDS011;34102;47.716;10.296;2023-12-28T16:04:07;4.30;;;1.92;;
48285;SDS011;34102;47.716;10.296;2023-12-28T16:06:32;4.47;;;2.05;;
48285;SDS011;34102;47.716;10.296;2023-12-28T16:08:58;4.90;;;2.67;;
48285;SDS011;34102;47.716;10.296;2023-12-28T16:11:25;3.97;;;2.63;;
48285;SDS011;34102;47.716;10.296;2023-12-28T16:13:50;4.72;;;2.90;;
48285;SDS011;34102;47.716;10.296;2023-12-28T16:16:16;7.15;;;3.83;;
48285;SDS011;34102;47.716;10.296;2023-12-28T16:18:43;7.13;;;3.53;;
48285;SDS011;34102;47.716;10.296;2023-12-28T16:21:08;7.18;;;3.58;;
48285;SDS011;34102;47.716;10.296;2023-12-28T16:23:35;7.50;;;3.50;;
48285;SDS011;34102;47.716;10.296;2023-12-28T16:26:02;5.05;;;2.38;;
48285;SDS011;34102;47.716;10.296;2023-12-28T16:28:28;7.20;;;2.67;;
48285;SDS011;34102;47.716;10.296;2023-12-28T16:30:53;4.45;;;1.83;;
48285;SDS011;34102;47.716;10.296;2023-12-28T16:33:18;4.95;;;2.58;;
48285;SDS011;34102;47.716;10.296;2023-12-28T16:35:44;4.38;;;2.10;;
48285;SDS011;34102;47.716;10.296;2023-12-28T16:38:10;5.72;;;2.85;;
48285;SDS011;34102;47.716;10.296;2023-12-28T16:40:38;7.60;;;3.85;;
48285;SDS011;34102;47.716;10.296;2023-12-28T16:43:03;5.25;;;3.35;;
48285;SDS011;34102;47.716;10.296;2023-12-28T16:45:30;5.90;;;3.42;;
48285;SDS011;34102;47.716;10.296;2023-12-28T16:47:56;5.30;;;2.92;;
48285;SDS011;34102;47.716;10.296;2023-12-28T16:50:21;7.60;;;4.22;;
48285;SDS011;34102;47.716;10.296;2023-12-28T16:52:49;17.90;;;8.77;;
48285;SDS011;34102;47.716;10.296;2023-12-28T16:55:17;11.63;;;5.03;;
48285;SDS011;34102;47.716;10.296;2023-12-28T16:57:43;9.80;;;5.10;;
48285;SDS011;34102;47.716;10.296;2023-12-28T17:00:09;7.25;;;3.97;;
48285;SDS011;34102;47.716;10.296;2023-12-28T17:02:35;9.48;;;5.18;;
48285;SDS011;34102;47.716;10.296;2023-12-28T17:05:01;9.00;;;4.65;;
48285;SDS011;34102;47.716;10.296;2023-12-28T17:07:30;11.35;;;6.20;;
48285;SDS011;34102;47.716;10.296;2023-12-28T17:09:55;14.63;;;7.10;;
48285;SDS011;34102;47.716;10.296;2023-12-28T17:12:27;11.10;;;6.30;;
48285;SDS011;34102;47.716;10.296;2023-12-28T17:14:57;11.93;;;6.95;;
48285;SDS011;34102;47.716;10.296;2023-12-28T17:17:22;12.70;;;6.70;;
48285;SDS011;34102;47.716;10.296;2023-12-28T17:19:48;14.65;;;7.55;;
48285;SDS011;34102;47.716;10.296;2023-12-28T17:22:13;15.27;;;7.95;;
48285;SDS011;34102;47.716;10.296;2023-12-28T17:24:58;11.52;;;6.90;;
48285;SDS011;34102;47.716;10.296;2023-12-28T17:29:52;11.30;;;5.80;;
48285;SDS011;34102;47.716;10.296;2023-12-28T17:32:22;10.27;;;5.68;;
48285;SDS011;34102;47.716;10.296;2023-12-28T17:34:48;9.52;;;4.40;;
48285;SDS011;34102;47.716;10.296;2023-12-28T17:37:14;7.43;;;4.40;;
48285;SDS011;34102;47.716;10.296;2023-12-28T17:39:40;6.68;;;3.97;;
48285;SDS011;34102;47.716;10.296;2023-12-28T17:42:09;8.02;;;4.90;;
48285;SDS011;34102;47.716;10.296;2023-12-28T17:44:36;27.30;;;13.55;;
48285;SDS011;34102;47.716;10.296;2023-12-28T17:47:06;11.30;;;6.55;;
48285;SDS011;34102;47.716;10.296;2023-12-28T17:49:32;7.85;;;4.65;;
48285;SDS011;34102;47.716;10.296;2023-12-28T17:51:58;8.63;;;4.75;;
48285;SDS011;34102;47.716;10.296;2023-12-28T17:54:24;10.30;;;6.32;;
48285;SDS011;34102;47.716;10.296;2023-12-28T17:56:53;11.90;;;5.97;;
48285;SDS011;34102;47.716;10.296;2023-12-28T17:59:21;13.30;;;6.63;;
48285;SDS011;34102;47.716;10.296;2023-12-28T18:01:47;9.20;;;4.22;;
48285;SDS011;34102;47.716;10.296;2023-12-28T18:04:13;9.93;;;5.00;;
48285;SDS011;34102;47.716;10.296;2023-12-28T18:06:38;9.80;;;5.10;;
48285;SDS011;34102;47.716;10.296;2023-12-28T18:09:04;13.23;;;7.05;;
48285;SDS011;34102;47.716;10.296;2023-12-28T18:11:29;14.20;;;6.85;;
48285;SDS011;34102;47.716;10.296;2023-12-28T18:13:55;12.63;;;5.47;;
48285;SDS011;34102;47.716;10.296;2023-12-28T18:16:21;9.23;;;4.18;;
48285;SDS011;34102;47.716;10.296;2023-12-28T18:18:47;8.30;;;4.50;;
48285;SDS011;34102;47.716;10.296;2023-12-28T18:21:16;6.90;;;3.92;;
48285;SDS011;34102;47.716;10.296;2023-12-28T18:23:43;7.65;;;4.28;;
48285;SDS011;34102;47.716;10.296;2023-12-28T18:26:08;7.30;;;3.70;;